createdAt,value
2022-09-16T00:05:17.964Z,100003.59
2022-09-16T00:12:19.531Z,99999.59
2022-09-16T00:19:21.106Z,99997.47
2022-09-16T00:26:23.855Z,99997.00
2022-09-16T00:33:25.726Z,99998.16
2022-09-16T00:40:27.296Z,100003.41
2022-09-16T00:47:38.543Z,100001.81
2022-09-16T00:54:40.143Z,100010.97
2022-09-16T01:01:44.709Z,100007.38
2022-09-16T01:08:46.524Z,100008.41
2022-09-16T01:16:07.202Z,100011.44
2022-09-16T01:23:12.035Z,100007.78
2022-09-16T01:30:40.899Z,100015.06
2022-09-16T01:38:07.814Z,100015.06
2022-09-16T01:45:17.489Z,100011.00
2022-09-16T01:52:20.551Z,100019.72
2022-09-16T01:59:29.095Z,100009.91
2022-09-16T02:06:30.667Z,100003.63
2022-09-16T02:13:39.955Z,100003.50
2022-09-16T02:20:43.451Z,100003.50
2022-09-16T02:27:45.996Z,99993.53
2022-09-16T02:34:49.881Z,100003.25
2022-09-16T02:41:51.746Z,100001.03
2022-09-16T02:49:08.175Z,99992.16
2022-09-16T02:56:14.549Z,99996.13
2022-09-16T03:03:16.281Z,100002.63
2022-09-16T03:10:18.409Z,99997.56
2022-09-16T03:17:34.198Z,100006.09
2022-09-16T03:24:47.380Z,100005.66
2022-09-16T03:31:55.408Z,100006.00
2022-09-16T03:38:56.964Z,100006.66
2022-09-16T03:45:58.584Z,99996.03
2022-09-16T03:53:00.217Z,99992.16
2022-09-16T04:00:02.048Z,99995.34
2022-09-16T04:07:13.188Z,99991.28
2022-09-16T04:14:14.784Z,99985.09
2022-09-16T04:21:16.480Z,99989.13
2022-09-16T04:28:18.053Z,99992.16
2022-09-16T04:35:19.606Z,99988.19
2022-09-16T04:42:21.199Z,99995.91
2022-09-16T04:49:22.745Z,99981.00
2022-09-16T04:56:26.159Z,99991.00
2022-09-16T05:03:27.832Z,99981.50
2022-09-16T05:10:29.445Z,99991.09
2022-09-16T05:17:49.799Z,99986.41
2022-09-16T05:24:52.614Z,99986.41
2022-09-16T05:31:54.208Z,99987.88
2022-09-16T05:39:20.976Z,99991.69
2022-09-16T05:46:19.749Z,99987.53
2022-09-16T05:53:21.528Z,99989.13
2022-09-16T06:00:23.134Z,99991.97
2022-09-16T06:07:24.673Z,99992.03
2022-09-16T06:14:26.522Z,99992.88
2022-09-16T06:21:28.272Z,99983.72
2022-09-16T06:28:30.011Z,99979.13
2022-09-16T06:35:31.600Z,99989.72
2022-09-16T06:42:33.144Z,99976.22
2022-09-16T06:49:38.371Z,99985.53
2022-09-16T06:56:41.355Z,99983.81
2022-09-16T07:03:44.984Z,99992.16
2022-09-16T07:10:58.766Z,99999.44
2022-09-16T07:18:00.330Z,99997.34
2022-09-16T07:25:01.875Z,100003.47
2022-09-16T07:32:03.421Z,99990.44
2022-09-16T07:39:05.804Z,99990.91
2022-09-16T07:46:08.054Z,99994.97
2022-09-16T07:53:09.642Z,99993.16
2022-09-16T08:00:12.094Z,100004.13
2022-09-16T08:07:13.796Z,99998.59
2022-09-16T08:14:15.361Z,99999.25
2022-09-16T08:21:22.276Z,99999.66
2022-09-16T08:28:39.948Z,100007.38
2022-09-16T08:36:02.494Z,100001.25
2022-09-16T08:43:44.353Z,99993.59
2022-09-16T08:50:47.142Z,99981.47
2022-09-16T08:57:56.779Z,99994.41
2022-09-16T09:04:59.356Z,99992.38
2022-09-16T09:12:39.521Z,99992.97
2022-09-16T09:20:07.782Z,99993.13
2022-09-16T09:27:23.334Z,99968.38
2022-09-16T09:34:59.859Z,99964.22
2022-09-16T09:42:21.169Z,99978.00
2022-09-16T09:49:31.646Z,99970.03
2022-09-16T09:56:44.952Z,99967.06
2022-09-16T10:03:48.189Z,99970.66
2022-09-16T10:10:54.978Z,99953.06
2022-09-16T10:17:58.924Z,99950.97
2022-09-16T10:25:18.671Z,99938.59
2022-09-16T10:32:20.372Z,99937.34
2022-09-16T10:39:24.038Z,99938.72
2022-09-16T10:46:25.767Z,99937.50
2022-09-16T10:53:32.901Z,99933.44
2022-09-16T11:00:59.858Z,99929.47
2022-09-16T11:08:29.383Z,99918.06
2022-09-16T11:15:49.950Z,99911.41
2022-09-16T11:23:35.837Z,99922.69
2022-09-16T11:30:48.937Z,99919.84
2022-09-16T11:38:25.530Z,99916.16
2022-09-16T11:45:39.281Z,99917.06
2022-09-16T11:53:12.751Z,99889.66
2022-09-16T12:00:17.067Z,99892.25
2022-09-16T12:07:24.756Z,99887.72
2022-09-16T12:14:29.787Z,99884.41
2022-09-16T12:21:35.008Z,99866.84
2022-09-16T12:28:37.855Z,99856.03
2022-09-16T12:35:47.831Z,99853.69
2022-09-16T12:43:10.931Z,99850.94
2022-09-16T12:50:13.115Z,99843.25
2022-09-16T12:57:33.611Z,99850.78
2022-09-16T13:04:39.393Z,99837.66
2022-09-16T13:19:24.303Z,99808.88
2022-09-16T13:26:25.937Z,99803.38
2022-09-16T13:33:29.146Z,99798.88
2022-09-16T13:40:31.121Z,99796.09
2022-09-16T13:47:40.127Z,99800.59
2022-09-16T13:55:06.309Z,99797.91
2022-09-16T14:02:29.302Z,99796.47
2022-09-16T14:10:07.753Z,99793.34
2022-09-16T14:17:17.126Z,99789.53
2022-09-16T14:24:19.802Z,99770.75
2022-09-16T14:31:29.210Z,99777.19
2022-09-16T14:38:45.890Z,99769.94
2022-09-16T14:45:53.122Z,99763.63
2022-09-16T14:53:05.775Z,99769.22
2022-09-16T15:00:12.551Z,99761.59
2022-09-16T15:07:18.191Z,99757.19
2022-09-16T15:14:19.921Z,99756.34
2022-09-16T15:21:26.325Z,99760.28
2022-09-16T15:28:28.014Z,99753.28
2022-09-16T15:35:33.383Z,99764.25
2022-09-16T15:42:34.982Z,99762.88
2022-09-16T15:49:38.276Z,99754.88
2022-09-16T15:56:48.653Z,99752.88
2022-09-16T16:03:57.996Z,99757.94
2022-09-16T16:11:07.941Z,99754.34
2022-09-16T16:18:10.634Z,99743.41
2022-09-16T16:25:13.144Z,99746.13
2022-09-16T16:32:15.693Z,99740.53
2022-09-16T16:39:17.245Z,99736.94
2022-09-16T16:46:18.851Z,99740.84
2022-09-16T16:53:20.492Z,99748.53
2022-09-16T17:00:22.102Z,99744.22
2022-09-16T17:07:26.579Z,99749.03
2022-09-16T17:14:29.736Z,99753.19
2022-09-16T17:21:32.447Z,99770.16
2022-09-16T17:28:34.022Z,99767.66
2022-09-16T17:35:36.248Z,99762.34
2022-09-16T17:42:37.834Z,99758.44
2022-09-16T17:49:39.371Z,99764.28
2022-09-16T17:56:42.581Z,99777.91
2022-09-16T18:03:45.531Z,99760.19
2022-09-16T18:10:52.693Z,99760.56
2022-09-16T18:17:54.443Z,99780.16
2022-09-16T18:24:56.017Z,99772.28
2022-09-16T18:31:58.320Z,99766.44
2022-09-16T18:38:59.911Z,99756.13
2022-09-16T18:46:12.216Z,99765.84
2022-09-16T18:53:13.800Z,99765.91
2022-09-16T19:00:15.563Z,99776.50
2022-09-16T19:07:19.193Z,99764.53
2022-09-16T19:14:24.138Z,99765.00
2022-09-16T19:21:25.745Z,99764.31
2022-09-16T19:28:27.350Z,99753.59
2022-09-16T19:35:32.406Z,99768.19
2022-09-16T19:42:33.959Z,99765.34
2022-09-16T19:49:35.526Z,99770.38
2022-09-16T19:56:37.118Z,99774.06
2022-09-16T20:03:40.763Z,99768.22
2022-09-16T20:10:42.309Z,99749.06
2022-09-16T20:17:43.933Z,99730.84
2022-09-16T20:24:45.481Z,99722.41
2022-09-16T20:31:48.145Z,99711.31
2022-09-16T20:38:49.974Z,99707.81
2022-09-16T20:45:51.591Z,99709.41
2022-09-16T20:52:53.240Z,99700.63
2022-09-16T20:59:54.812Z,99686.69
2022-09-16T21:06:56.370Z,99679.38
2022-09-16T21:13:59.447Z,99696.88
2022-09-16T21:21:14.447Z,99686.19
2022-09-16T21:28:15.989Z,99685.66
2022-09-16T21:35:17.951Z,99696.28
2022-09-16T21:42:19.518Z,99693.53
2022-09-16T21:49:28.966Z,99706.41
2022-09-16T21:56:30.997Z,99693.44
2022-09-16T22:03:32.577Z,99702.53
2022-09-16T22:10:34.138Z,99704.00
2022-09-16T22:17:35.749Z,99719.34
2022-09-16T22:24:37.313Z,99728.69
2022-09-16T22:31:40.496Z,99728.31
2022-09-16T22:38:52.304Z,99727.09
2022-09-16T22:45:53.894Z,99725.63
2022-09-16T22:52:55.452Z,99720.34
2022-09-16T22:59:57.014Z,99737.31
2022-09-16T23:06:58.745Z,99735.03
2022-09-16T23:14:01.127Z,99742.38
2022-09-16T23:21:07.325Z,99744.91
2022-09-16T23:28:09.521Z,99753.72
2022-09-16T23:35:11.167Z,99751.41
2022-09-16T23:42:12.754Z,99750.16
2022-09-16T23:49:16.925Z,99760.59
2022-09-16T23:56:18.874Z,99758.72
